Terminal Aerodrome Forecast
Issued by NWS Sioux Falls, SD

Home | Current Version | Previous Version | Text Only | Print | Product List | Glossary On
Versions: 1 2 3 4 5 6 7 8 9 10 11 12 13 14 15
000
FTUS43 KFSD 210400 AAA
TAFFSD
TAF AMD
KFSD 210420Z 2104/2124 VRB04KT P6SM SCT080 BKN150
      TEMPO 2106/2108 -TSRA BKN060CB
     FM210900 35012G18KT P6SM SKC
     FM211400 35018G26KT P6SM SKC=

USA.gov is the U.S. government's official web portal to all federal, state and local government web resources and services.